| time (UTC) | temp F | wind direction | speed MPH | gust MPH | rain 1hr in | rain 24hr in | rain mn in | humidity % | barometer mb |
| 20260510153059 | 56 | 286 | 3.0 | 4.0 | 0.04 | 0.21 | 0.21 | 92 | 947.3 |
| 20260510153055 | 56 | 299 | 4.0 | 4.0 | 0.04 | 0.21 | 0.21 | 92 | 947.2 |
| 20260510152555 | 56 | 268 | 2.0 | 4.0 | 0.06 | 0.21 | 0.21 | 92 | 946.9 |
| 20260510152547 | 56 | 268 | 3.0 | 4.0 | 0.06 | 0.21 | 0.21 | 92 | 947.0 |
| 20260510152033 | 55 | 278 | 2.0 | 4.0 | 0.08 | 0.21 | 0.21 | 92 | 947.2 |
| 20260510151555 | 55 | 264 | 2.0 | 4.0 | 0.10 | 0.21 | 0.21 | 92 | 947.4 |
| 20260510151533 | 55 | 264 | 2.0 | 4.0 | 0.10 | 0.21 | 0.21 | 92 | 947.5 |
| 20260510151055 | 55 | 266 | 2.0 | 5.0 | 0.13 | 0.21 | 0.21 | 92 | 947.6 |
| 20260510151034 | 55 | 250 | 2.0 | 5.0 | 0.13 | 0.21 | 0.21 | 92 | 947.7 |
| 20260510150556 | 55 | 281 | 2.0 | 5.0 | 0.15 | 0.21 | 0.21 | 92 | 947.9 |
| 20260510150534 | 55 | 281 | 2.0 | 5.0 | 0.16 | 0.21 | 0.21 | 92 | 948.0 |
| 20260510150055 | 54 | 262 | 3.0 | 5.0 | 0.17 | 0.21 | 0.21 | 92 | 948.0 |
| 20260510150034 | 54 | 281 | 3.0 | 5.0 | 0.17 | 0.21 | 0.21 | 92 | 948.0 |
| 20260510145533 | 53 | 223 | 2.0 | 4.0 | 0.17 | 0.05 | 0.21 | 92 | 947.9 |
| 20260510145243 | 53 | 264 | 3.0 | 4.0 | 0.19 | 0.05 | 0.21 | 92 | 947.9 |
| 20260510144555 | 53 | 219 | 2.0 | 3.0 | 0.21 | 0.05 | 0.21 | 91 | 948.0 |
| 20260510144534 | 53 | 217 | 2.0 | 3.0 | 0.21 | 0.05 | 0.21 | 91 | 948.1 |
| 20260510144054 | 52 | 104 | 0.0 | 2.0 | 0.20 | 0.05 | 0.19 | 91 | 948.3 |
| 20260510144034 | 52 | 104 | 0.0 | 2.0 | 0.20 | 0.05 | 0.19 | 91 | 948.4 |
| 20260510143555 | 52 | 104 | 0.0 | 5.0 | 0.19 | 0.05 | 0.19 | 91 | 948.5 |
| 20260510143533 | 52 | 104 | 0.0 | 5.0 | 0.19 | 0.05 | 0.18 | 91 | 948.4 |
| 20260510143055 | 52 | 97 | 3.0 | 7.0 | 0.17 | 0.05 | 0.17 | 91 | 948.5 |
| 20260510143034 | 52 | 97 | 3.0 | 9.0 | 0.17 | 0.05 | 0.17 | 91 | 948.5 |
| 20260510142741 | 52 | 106 | 4.0 | 11.0 | 0.16 | 0.05 | 0.14 | 83 | 948.4 |
| 20260510142054 | 53 | 85 | 7.0 | 11.0 | 0.13 | 0.05 | 0.13 | 83 | 948.5 |
| 20260510142034 | 53 | 86 | 7.0 | 11.0 | 0.13 | 0.05 | 0.13 | 83 | 948.5 |
| 20260510141554 | 53 | 90 | 6.0 | 10.0 | 0.11 | 0.05 | 0.11 | 83 | 948.3 |
| 20260510141533 | 53 | 96 | 3.0 | 10.0 | 0.11 | 0.05 | 0.11 | 83 | 948.3 |
| 20260510141054 | 54 | 85 | 6.0 | 10.0 | 0.09 | 0.05 | 0.09 | 83 | 948.3 |
| 20260510141005 | 54 | 94 | 6.0 | 10.0 | 0.09 | 0.05 | 0.09 | 83 | 948.3 |
| 20260510140554 | 54 | 75 | 4.0 | 5.0 | 0.06 | 0.05 | 0.06 | 83 | 948.3 |
| 20260510140513 | 54 | 65 | 4.0 | 5.0 | 0.06 | 0.05 | 0.05 | 83 | 948.4 |
| 20260510140054 | 54 | 281 | 0.0 | 1.0 | 0.05 | 0.05 | 0.05 | 57 | 948.3 |
| 20260510140005 | 54 | 281 | 0.0 | 1.0 | 0.05 | 0.00 | 0.04 | 57 | 948.2 |
| 20260510135714 | 54 | 276 | 0.0 | 11.0 | 0.04 | 0.00 | 0.04 | 57 | 948.0 |
| 20260510135214 | 56 | 299 | 4.0 | 19.0 | 0.02 | 0.00 | 0.02 | 57 | 948.0 |
| 20260510134715 | 58 | 314 | 11.0 | 26.0 | 0.00 | 0.00 | 0.00 | 57 | 948.3 |
| 20260510134214 | 60 | 323 | 11.0 | 26.0 | 0.00 | 0.00 | 0.00 | 57 | 947.9 |
| 20260510133553 | 61 | 307 | 9.0 | 17.0 | 0.00 | 0.00 | 0.00 | 57 | 947.2 |
| 20260510133504 | 62 | 321 | 9.0 | 17.0 | 0.00 | 0.00 | 0.00 | 57 | 947.2 |
| 20260510133054 | 62 | 326 | 4.0 | 12.0 | 0.00 | 0.00 | 0.00 | 52 | 946.6 |
| 20260510133006 | 62 | 35 | 4.0 | 12.0 | 0.00 | 0.00 | 0.00 | 52 | 946.6 |
| 20260510132554 | 62 | 343 | 7.0 | 12.0 | 0.00 | 0.00 | 0.00 | 52 | 946.6 |
| 20260510132505 | 62 | 317 | 6.0 | 10.0 | 0.00 | 0.00 | 0.00 | 52 | 946.6 |
| 20260510132053 | 62 | 337 | 6.0 | 10.0 | 0.00 | 0.00 | 0.00 | 52 | 946.6 |
| 20260510132005 | 62 | 344 | 4.0 | 10.0 | 0.00 | 0.00 | 0.00 | 52 | 946.5 |
| 20260510131553 | 62 | 38 | 4.0 | 10.0 | 0.00 | 0.00 | 0.00 | 52 | 946.5 |
| 20260510131505 | 62 | 82 | 4.0 | 12.0 | 0.00 | 0.00 | 0.00 | 52 | 946.6 |
| 20260510131053 | 62 | 4 | 4.0 | 12.0 | 0.00 | 0.00 | 0.00 | 57 | 946.6 |
| 20260510131006 | 62 | 41 | 4.0 | 12.0 | 0.00 | 0.00 | 0.00 | 57 | 946.7 |
| 20260510130553 | 63 | 41 | 6.0 | 12.0 | 0.00 | 0.00 | 0.00 | 55 | 946.7 |
| 20260510130506 | 63 | 320 | 5.0 | 13.0 | 0.00 | 0.00 | 0.00 | 55 | 946.7 |
| 20260510130053 | 63 | 326 | 5.0 | 13.0 | 0.00 | 0.00 | 0.00 | 55 | 946.7 |
| 20260510130005 | 63 | 0 | 5.0 | 13.0 | 0.00 | 0.00 | 0.00 | 55 | 946.7 |
| 20260510125614 | 64 | 343 | 8.0 | 13.0 | 0.00 | 0.00 | 0.00 | 55 | 946.7 |
| 20260510125612 | 64 | 350 | 7.0 | 13.0 | 0.00 | 0.00 | 0.00 | 55 | 946.7 |
| 20260510125214 | 64 | 343 | 9.0 | 13.0 | 0.00 | 0.00 | 0.00 | 56 | 946.7 |
| 20260510124714 | 64 | 0 | 7.0 | 11.0 | 0.00 | 0.00 | 0.00 | 56 | 946.6 |
| 20260510124214 | 64 | 330 | 6.0 | 12.0 | 0.00 | 0.00 | 0.00 | 56 | 946.6 |
| 20260510123552 | 64 | 340 | 8.0 | 15.0 | 0.00 | 0.00 | 0.00 | 56 | 946.7 |
| 20260510123504 | 64 | 331 | 9.0 | 15.0 | 0.00 | 0.00 | 0.00 | 56 | 946.8 |
| 20260510123052 | 65 | 320 | 7.0 | 15.0 | 0.00 | 0.00 | 0.00 | 56 | 946.8 |
| 20260510123005 | 65 | 316 | 9.0 | 15.0 | 0.00 | 0.00 | 0.00 | 60 | 946.8 |
| 20260510122552 | 65 | 330 | 6.0 | 12.0 | 0.00 | 0.00 | 0.00 | 60 | 946.8 |
| 20260510122507 | 65 | 290 | 7.0 | 12.0 | 0.00 | 0.00 | 0.00 | 60 | 946.8 |
| 20260510122052 | 65 | 305 | 5.0 | 12.0 | 0.00 | 0.00 | 0.00 | 60 | 946.9 |
| 20260510122006 | 64 | 306 | 4.0 | 12.0 | 0.00 | 0.00 | 0.00 | 60 | 946.9 |
| 20260510121713 | 64 | 320 | 7.0 | 12.0 | 0.00 | 0.00 | 0.00 | 57 | 947.0 |
| 20260510121051 | 64 | 357 | 4.0 | 12.0 | 0.00 | 0.00 | 0.00 | 55 | 947.1 |
| 20260510121004 | 64 | 319 | 5.0 | 12.0 | 0.00 | 0.00 | 0.00 | 55 | 947.1 |
| 20260510120552 | 64 | 334 | 5.0 | 12.0 | 0.00 | 0.00 | 0.00 | 61 | 947.2 |
| 20260510120506 | 64 | 337 | 6.0 | 12.0 | 0.00 | 0.00 | 0.00 | 61 | 947.2 |
| 20260510120051 | 64 | 350 | 4.0 | 10.0 | 0.00 | 0.00 | 0.00 | 61 | 947.2 |
| 20260510120005 | 64 | 329 | 4.0 | 10.0 | 0.00 | 0.00 | 0.00 | 61 | 947.3 |
| 20260510115552 | 64 | 302 | 6.0 | 11.0 | 0.00 | 0.00 | 0.00 | 61 | 947.4 |
| 20260510115505 | 64 | 338 | 6.0 | 11.0 | 0.00 | 0.00 | 0.00 | 61 | 947.3 |
| 20260510115051 | 62 | 340 | 5.0 | 11.0 | 0.00 | 0.00 | 0.00 | 61 | 947.4 |
| 20260510115006 | 62 | 320 | 6.0 | 11.0 | 0.00 | 0.00 | 0.00 | 61 | 947.4 |
| 20260510114713 | 62 | 317 | 7.0 | 13.0 | 0.00 | 0.00 | 0.00 | 61 | 947.4 |
| 20260510114051 | 62 | 340 | 4.0 | 13.0 | 0.00 | 0.00 | 0.00 | 61 | 947.5 |
| 20260510114005 | 62 | 341 | 6.0 | 13.0 | 0.00 | 0.00 | 0.00 | 61 | 947.5 |
| 20260510113551 | 62 | 303 | 5.0 | 13.0 | 0.00 | 0.00 | 0.00 | 61 | 947.6 |
| 20260510113505 | 62 | 49 | 5.0 | 14.0 | 0.00 | 0.00 | 0.00 | 61 | 947.6 |
| 20260510113051 | 63 | 317 | 8.0 | 14.0 | 0.00 | 0.00 | 0.00 | 61 | 947.8 |
| 20260510113006 | 63 | 327 | 7.0 | 14.0 | 0.00 | 0.00 | 0.00 | 61 | 947.7 |
| 20260510112550 | 63 | 347 | 9.0 | 14.0 | 0.00 | 0.00 | 0.00 | 61 | 947.9 |
| 20260510112505 | 63 | 340 | 8.0 | 14.0 | 0.00 | 0.00 | 0.00 | 61 | 947.8 |
| 20260510112050 | 63 | 34 | 9.0 | 16.0 | 0.00 | 0.00 | 0.00 | 57 | 947.8 |
| 20260510112004 | 63 | 3 | 9.0 | 16.0 | 0.00 | 0.00 | 0.00 | 57 | 947.7 |
| 20260510111551 | 64 | 23 | 9.0 | 16.0 | 0.00 | 0.00 | 0.00 | 57 | 947.7 |
| 20260510111504 | 64 | 338 | 10.0 | 16.0 | 0.00 | 0.00 | 0.00 | 57 | 947.8 |
| 20260510111050 | 64 | 331 | 10.0 | 17.0 | 0.00 | 0.00 | 0.00 | 60 | 947.8 |
| 20260510111006 | 64 | 337 | 10.0 | 17.0 | 0.00 | 0.00 | 0.00 | 60 | 947.7 |
| 20260510110715 | 64 | 333 | 11.0 | 17.0 | 0.00 | 0.00 | 0.00 | 60 | 947.8 |
| 20260510110050 | 64 | 286 | 8.0 | 14.0 | 0.00 | 0.00 | 0.00 | 67 | 947.8 |
| 20260510110005 | 64 | 307 | 8.0 | 14.0 | 0.00 | 0.00 | 0.00 | 67 | 947.8 |
| 20260510105544 | 64 | 331 | 6.0 | 14.0 | 0.00 | 0.00 | 0.00 | 67 | 947.9 |
| 20260510105505 | 64 | 336 | 6.0 | 14.0 | 0.00 | 0.00 | 0.00 | 67 | 947.9 |
| 20260510105042 | 63 | 358 | 6.0 | 11.0 | 0.00 | 0.00 | 0.00 | 67 | 948.0 |
| 20260510105004 | 63 | 313 | 5.0 | 11.0 | 0.00 | 0.00 | 0.00 | 67 | 948.0 |
| 20260510104542 | 63 | 331 | 5.0 | 13.0 | 0.00 | 0.00 | 0.00 | 67 | 948.0 |
| 20260510104505 | 63 | 3 | 5.0 | 13.0 | 0.00 | 0.00 | 0.00 | 67 | 948.0 |
| 20260510104042 | 62 | 334 | 9.0 | 13.0 | 0.00 | 0.00 | 0.00 | 67 | 948.0 |
| 20260510104005 | 62 | 323 | 10.0 | 13.0 | 0.00 | 0.00 | 0.00 | 67 | 948.0 |
| 20260510103540 | 62 | 316 | 8.0 | 12.0 | 0.00 | 0.00 | 0.00 | 67 | 948.1 |
| 20260510103505 | 61 | 289 | 8.0 | 12.0 | 0.00 | 0.00 | 0.00 | 67 | 948.1 |
| 20260510103032 | 61 | 337 | 4.0 | 17.0 | 0.00 | 0.00 | 0.00 | 67 | 948.0 |
| 20260510103006 | 61 | 313 | 4.0 | 17.0 | 0.00 | 0.00 | 0.00 | 67 | 948.0 |
| 20260510102714 | 61 | 353 | 5.0 | 17.0 | 0.00 | 0.00 | 0.00 | 69 | 948.1 |
| 20260510102214 | 61 | 309 | 7.0 | 11.0 | 0.00 | 0.00 | 0.00 | 69 | 948.1 |
| 20260510101531 | 61 | 298 | 6.0 | 14.0 | 0.00 | 0.00 | 0.00 | 69 | 948.1 |
| 20260510101505 | 61 | 0 | 6.0 | 14.0 | 0.00 | 0.00 | 0.00 | 69 | 948.1 |
| 20260510101032 | 62 | 292 | 8.0 | 14.0 | 0.00 | 0.00 | 0.00 | 69 | 948.2 |
| 20260510101005 | 62 | 312 | 8.0 | 14.0 | 0.00 | 0.00 | 0.00 | 69 | 948.2 |
| 20260510100714 | 62 | 321 | 5.0 | 13.0 | 0.00 | 0.00 | 0.00 | 69 | 948.1 |
| 20260510100031 | 62 | 305 | 5.0 | 12.0 | 0.00 | 0.00 | 0.00 | 69 | 948.1 |
| 20260510100006 | 62 | 303 | 5.0 | 12.0 | 0.00 | 0.00 | 0.00 | 69 | 948.1 |
| 20260510095531 | 62 | 279 | 7.0 | 12.0 | 0.00 | 0.00 | 0.00 | 69 | 948.1 |
| 20260510095504 | 62 | 316 | 7.0 | 12.0 | 0.00 | 0.00 | 0.00 | 69 | 948.1 |
| 20260510095031 | 62 | 295 | 6.0 | 11.0 | 0.00 | 0.00 | 0.00 | 69 | 948.2 |
| 20260510095004 | 62 | 298 | 7.0 | 11.0 | 0.00 | 0.00 | 0.00 | 69 | 948.2 |
| 20260510094531 | 61 | 313 | 6.0 | 14.0 | 0.00 | 0.00 | 0.00 | 69 | 948.2 |
| 20260510094504 | 61 | 309 | 6.0 | 14.0 | 0.00 | 0.00 | 0.00 | 69 | 948.2 |
| 20260510094031 | 61 | 34 | 6.0 | 14.0 | 0.00 | 0.00 | 0.00 | 68 | 948.4 |
| 20260510094006 | 61 | 341 | 7.0 | 16.0 | 0.00 | 0.00 | 0.00 | 68 | 948.4 |
| 20260510093531 | 61 | 299 | 6.0 | 16.0 | 0.00 | 0.00 | 0.00 | 68 | 948.5 |
| 20260510093505 | 61 | 296 | 6.0 | 16.0 | 0.00 | 0.00 | 0.00 | 68 | 948.5 |
| 20260510093031 | 61 | 3 | 9.0 | 16.0 | 0.00 | 0.00 | 0.00 | 68 | 948.5 |
| 20260510093005 | 61 | 343 | 7.0 | 17.0 | 0.00 | 0.00 | 0.00 | 68 | 948.5 |
| 20260510092531 | 61 | 317 | 6.0 | 17.0 | 0.00 | 0.00 | 0.00 | 69 | 948.5 |
| 20260510092506 | 61 | 326 | 6.0 | 17.0 | 0.00 | 0.00 | 0.00 | 69 | 948.5 |
| 20260510092031 | 61 | 8 | 9.0 | 17.0 | 0.00 | 0.00 | 0.00 | 75 | 948.5 |
| 20260510092005 | 61 | 333 | 7.0 | 12.0 | 0.00 | 0.00 | 0.00 | 75 | 948.5 |
| 20260510091714 | 60 | 345 | 5.0 | 13.0 | 0.00 | 0.00 | 0.00 | 75 | 948.5 |
| 20260510091031 | 60 | 327 | 6.0 | 14.0 | 0.00 | 0.00 | 0.00 | 71 | 948.6 |
| 20260510091005 | 60 | 303 | 7.0 | 14.0 | 0.00 | 0.00 | 0.00 | 71 | 948.6 |
| 20260510090216 | 59 | 303 | 9.0 | 13.0 | 0.00 | 0.00 | 0.00 | 74 | 948.8 |
| 20260510085714 | 59 | 248 | 8.0 | 13.0 | 0.00 | 0.00 | 0.00 | 77 | 948.7 |
| 20260510085016 | 59 | 350 | 6.0 | 12.0 | 0.00 | 0.00 | 0.00 | 77 | 948.7 |
| 20260510085005 | 58 | 323 | 6.0 | 12.0 | 0.00 | 0.00 | 0.00 | 77 | 948.7 |
| 20260510084712 | 59 | 319 | 6.0 | 13.0 | 0.00 | 0.00 | 0.00 | 77 | 948.7 |
| 20260510084004 | 59 | 298 | 8.0 | 13.0 | 0.00 | 0.00 | 0.00 | 77 | 948.6 |
| 20260510083511 | 58 | 317 | 4.0 | 10.0 | 0.00 | 0.00 | 0.00 | 77 | 948.7 |
| 20260510083504 | 58 | 309 | 4.0 | 10.0 | 0.00 | 0.00 | 0.00 | 77 | 948.7 |
| 20260510083012 | 57 | 305 | 6.0 | 10.0 | 0.00 | 0.00 | 0.00 | 77 | 948.7 |
| 20260510083005 | 57 | 278 | 6.0 | 10.0 | 0.00 | 0.00 | 0.00 | 77 | 948.7 |
| 20260510082714 | 58 | 355 | 5.0 | 7.0 | 0.00 | 0.00 | 0.00 | 77 | 948.6 |
| 20260510082009 | 58 | 300 | 4.0 | 7.0 | 0.00 | 0.00 | 0.00 | 77 | 948.6 |
| 20260510082005 | 58 | 323 | 4.0 | 7.0 | 0.00 | 0.00 | 0.00 | 77 | 948.6 |
| 20260510081509 | 58 | 278 | 3.0 | 7.0 | 0.00 | 0.00 | 0.00 | 77 | 948.6 |
| 20260510081505 | 58 | 271 | 3.0 | 7.0 | 0.00 | 0.00 | 0.00 | 77 | 948.6 |
| 20260510081010 | 58 | 259 | 4.0 | 7.0 | 0.00 | 0.00 | 0.00 | 77 | 948.6 |
| 20260510081005 | 58 | 278 | 4.0 | 7.0 | 0.00 | 0.00 | 0.00 | 77 | 948.6 |
| 20260510080505 | 58 | 244 | 2.0 | 7.0 | 0.00 | 0.00 | 0.00 | 77 | 948.5 |
| 20260510080213 | 57 | 313 | 5.0 | 7.0 | 0.00 | 0.00 | 0.00 | 78 | 948.5 |
| 20260510075509 | 57 | 259 | 4.0 | 7.0 | 0.00 | 0.00 | 0.00 | 78 | 948.6 |
| 20260510075505 | 57 | 299 | 4.0 | 7.0 | 0.00 | 0.00 | 0.00 | 78 | 948.6 |
| 20260510075011 | 57 | 286 | 4.0 | 6.0 | 0.00 | 0.00 | 0.00 | 78 | 948.6 |
| 20260510075005 | 57 | 290 | 4.0 | 6.0 | 0.00 | 0.00 | 0.00 | 78 | 948.6 |
| 20260510074505 | 57 | 324 | 4.0 | 9.0 | 0.00 | 0.00 | 0.00 | 79 | 948.5 |
| 20260510074005 | 57 | 289 | 6.0 | 9.0 | 0.00 | 0.00 | 0.00 | 79 | 948.5 |
| 20260510073510 | 57 | 312 | 5.0 | 9.0 | 0.00 | 0.00 | 0.00 | 78 | 948.5 |
| 20260510073504 | 57 | 288 | 5.0 | 9.0 | 0.00 | 0.00 | 0.00 | 78 | 948.5 |
| 20260510073005 | 57 | 307 | 4.0 | 9.0 | 0.00 | 0.00 | 0.00 | 80 | 948.5 |
| 20260510072505 | 57 | 330 | 4.0 | 9.0 | 0.00 | 0.00 | 0.00 | 78 | 948.4 |
| 20260510072005 | 57 | 309 | 4.0 | 7.0 | 0.00 | 0.00 | 0.00 | 78 | 948.4 |
| 20260510071505 | 57 | 306 | 6.0 | 7.0 | 0.00 | 0.00 | 0.00 | 79 | 948.2 |
| 20260510071005 | 57 | 292 | 4.0 | 7.0 | 0.00 | 0.00 | 0.00 | 79 | 948.3 |
| 20260510070713 | 57 | 237 | 1.0 | 4.0 | 0.00 | 0.00 | 0.00 | 79 | 948.2 |
| 20260510070006 | 56 | 279 | 2.0 | 4.0 | 0.00 | 0.00 | 0.00 | 79 | 948.2 |
| 20260510065504 | 56 | 290 | 2.0 | 5.0 | 0.00 | 0.00 | 0.00 | 81 | 948.2 |
| 20260510065005 | 56 | 237 | 2.0 | 5.0 | 0.00 | 0.00 | 0.00 | 79 | 948.2 |
| 20260510064505 | 56 | 286 | 3.0 | 6.0 | 0.00 | 0.00 | 0.00 | 79 | 948.1 |
| 20260510064005 | 56 | 295 | 4.0 | 7.0 | 0.00 | 0.00 | 0.00 | 79 | 948.1 |
| 20260510063505 | 56 | 305 | 4.0 | 9.0 | 0.00 | 0.00 | 0.00 | 81 | 948.2 |
| 20260510063003 | 55 | 316 | 5.0 | 9.0 | 0.00 | 0.00 | 0.00 | 81 | 948.2 |
| 20260510062712 | 55 | 281 | 5.0 | 7.0 | 0.00 | 0.00 | 0.00 | 83 | 948.1 |
| 20260510061958 | 55 | 312 | 4.0 | 7.0 | 0.00 | 0.00 | 0.00 | 84 | 948.1 |
| 20260510061450 | 54 | 252 | 4.0 | 6.0 | 0.00 | 0.00 | 0.00 | 85 | 948.0 |
| 20260510060951 | 54 | 258 | 2.0 | 5.0 | 0.00 | 0.00 | 0.00 | 86 | 947.9 |
| 20260510060449 | 53 | 265 | 2.0 | 5.0 | 0.00 | 0.00 | 0.00 | 85 | 947.8 |
| 20260510055950 | 53 | 268 | 2.0 | 3.0 | 0.00 | 0.00 | 0.00 | 85 | 947.8 |
| 20260510055658 | 53 | 213 | 1.0 | 3.0 | 0.00 | 0.00 | 0.00 | 85 | 947.7 |
| 20260510054950 | 53 | 235 | 1.0 | 3.0 | 0.00 | 0.00 | 0.00 | 85 | 947.7 |
| 20260510054449 | 54 | 261 | 0.0 | 2.0 | 0.00 | 0.00 | 0.00 | 85 | 947.8 |
| 20260510053950 | 54 | 262 | 0.0 | 2.0 | 0.00 | 0.00 | 0.00 | 85 | 947.6 |
| 20260510053449 | 54 | 213 | 1.0 | 2.0 | 0.00 | 0.00 | 0.00 | 85 | 947.5 |
| 20260510053157 | 53 | 217 | 0.0 | 2.0 | 0.00 | 0.00 | 0.00 | 85 | 947.6 |
| 20260510052448 | 54 | 217 | 0.0 | 2.0 | 0.00 | 0.00 | 0.00 | 85 | 947.6 |
| 20260510051939 | 0 | 131 | 0.0 | 1.0 | 0.00 | 0.00 | 0.00 | 947.7 | |
| 20260510051437 | 54 | 131 | 0.0 | 1.0 | 0.00 | 0.00 | 0.00 | 84 | 947.6 |
| 20260510050936 | 54 | 131 | 0.0 | 1.0 | 0.00 | 0.00 | 0.00 | 84 | 947.6 |
| 20260510050435 | 54 | 131 | 0.0 | 0.0 | 0.00 | 0.00 | 0.00 | 84 | 947.5 |
| 20260510045937 | 54 | 130 | 0.0 | 2.0 | 0.00 | 0.00 | 0.00 | 84 | 947.6 |
| 20260510045644 | 54 | 127 | 0.0 | 2.0 | 0.00 | 0.00 | 0.00 | 84 | 947.7 |
| 20260510044935 | 54 | 125 | 0.0 | 1.0 | 0.00 | 0.00 | 0.00 | 84 | 947.7 |
| 20260510044435 | 53 | 125 | 0.0 | 1.0 | 0.00 | 0.00 | 0.00 | 84 | 947.7 |
| 20260510043933 | 54 | 135 | 0.0 | 1.0 | 0.00 | 0.00 | 0.00 | 83 | 947.7 |
| 20260510043422 | 54 | 134 | 1.0 | 1.0 | 0.00 | 0.00 | 0.00 | 81 | 947.6 |
| 20260510043123 | 54 | 252 | 0.0 | 2.0 | 0.00 | 0.00 | 0.00 | 81 | 947.6 |
| 20260510042616 | 54 | 252 | 0.0 | 6.0 | 0.00 | 0.00 | 0.00 | 81 | 947.5 |
| 20260510041908 | 55 | 49 | 3.0 | 6.0 | 0.00 | 0.00 | 0.00 | 81 | 947.6 |
| 20260510041408 | 55 | 48 | 2.0 | 5.0 | 0.00 | 0.00 | 0.00 | 81 | 947.6 |
| 20260510040908 | 55 | 300 | 1.0 | 7.0 | 0.00 | 0.00 | 0.00 | 81 | 947.6 |
| 20260510040409 | 55 | 331 | 2.0 | 10.0 | 0.00 | 0.00 | 0.00 | 81 | 947.6 |
| 20260510035907 | 55 | 326 | 4.0 | 10.0 | 0.00 | 0.00 | 0.00 | 84 | 947.6 |
| 20260510035408 | 55 | 61 | 2.0 | 4.0 | 0.00 | 0.00 | 0.00 | 84 | 947.6 |
| 20260510034907 | 55 | 261 | 0.0 | 3.0 | 0.00 | 0.00 | 0.00 | 84 | 947.6 |
| 20260510034408 | 55 | 302 | 2.0 | 5.0 | 0.00 | 0.00 | 0.00 | 84 | 947.6 |
| 20260510033906 | 55 | 298 | 1.0 | 7.0 | 0.00 | 0.00 | 0.00 | 81 | 947.5 |
| 20260510033410 | 55 | 210 | 5.0 | 10.0 | 0.00 | 0.00 | 0.00 | 81 | 947.5 |
| 20260510032906 | 55 | 292 | 6.0 | 13.0 | 0.00 | 0.00 | 0.00 | 81 | 947.4 |
| 20260510032408 | 55 | 306 | 5.0 | 13.0 | 0.00 | 0.00 | 0.00 | 81 | 947.3 |
| 20260510032114 | 55 | 293 | 5.0 | 9.0 | 0.00 | 0.00 | 0.00 | 81 | 947.3 |
| 20260510031411 | 55 | 299 | 4.0 | 9.0 | 0.00 | 0.00 | 0.00 | 81 | 947.2 |
| 20260510031407 | 55 | 292 | 4.0 | 9.0 | 0.00 | 0.00 | 0.00 | 81 | 947.2 |
| 20260510030910 | 55 | 302 | 4.0 | 9.0 | 0.00 | 0.00 | 0.00 | 81 | 947.3 |
| 20260510030906 | 55 | 341 | 3.0 | 9.0 | 0.00 | 0.00 | 0.00 | 81 | 947.3 |
| 20260510030407 | 56 | 279 | 4.0 | 9.0 | 0.00 | 0.00 | 0.00 | 81 | 947.2 |
| 20260510025910 | 56 | 274 | 2.0 | 6.0 | 0.00 | 0.00 | 0.00 | 81 | 947.3 |
| 20260510025906 | 56 | 259 | 2.0 | 6.0 | 0.00 | 0.00 | 0.00 | 81 | 947.3 |
| 20260510025407 | 56 | 298 | 2.0 | 7.0 | 0.00 | 0.00 | 0.00 | 81 | 947.2 |
| 20260510024910 | 56 | 288 | 4.0 | 11.0 | 0.00 | 0.00 | 0.00 | 81 | 947.2 |
| 20260510024906 | 56 | 288 | 4.0 | 11.0 | 0.00 | 0.00 | 0.00 | 81 | 947.2 |
| 20260510024410 | 56 | 289 | 3.0 | 11.0 | 0.00 | 0.00 | 0.00 | 81 | 947.2 |
| 20260510024406 | 56 | 289 | 3.0 | 11.0 | 0.00 | 0.00 | 0.00 | 81 | 947.2 |
| 20260510023909 | 56 | 296 | 6.0 | 14.0 | 0.00 | 0.00 | 0.00 | 81 | 947.0 |
| 20260510023905 | 56 | 274 | 6.0 | 14.0 | 0.00 | 0.00 | 0.00 | 81 | 947.0 |
| 20260510023413 | 56 | 299 | 6.0 | 14.0 | 0.00 | 0.00 | 0.00 | 81 | 947.3 |
| 20260510023406 | 56 | 274 | 6.0 | 14.0 | 0.00 | 0.00 | 0.00 | 81 | 947.3 |
| 20260510022909 | 56 | 276 | 6.0 | 11.0 | 0.00 | 0.00 | 0.00 | 81 | 947.5 |
| 20260510022905 | 56 | 276 | 6.0 | 11.0 | 0.00 | 0.00 | 0.00 | 81 | 947.5 |
| 20260510022410 | 56 | 303 | 8.0 | 11.0 | 0.00 | 0.00 | 0.00 | 81 | 947.6 |
| 20260510022406 | 56 | 286 | 7.0 | 11.0 | 0.00 | 0.00 | 0.00 | 81 | 947.6 |
| 20260510021908 | 56 | 302 | 7.0 | 11.0 | 0.00 | 0.00 | 0.00 | 81 | 947.5 |
| 20260510021904 | 56 | 302 | 7.0 | 11.0 | 0.00 | 0.00 | 0.00 | 81 | 947.5 |
| 20260510021410 | 55 | 214 | 5.0 | 10.0 | 0.00 | 0.00 | 0.00 | 81 | 947.4 |
| 20260510021406 | 55 | 307 | 5.0 | 10.0 | 0.00 | 0.00 | 0.00 | 81 | 947.4 |
| 20260510020909 | 55 | 234 | 3.0 | 7.0 | 0.00 | 0.00 | 0.00 | 81 | 947.4 |
| 20260510020905 | 55 | 234 | 3.0 | 7.0 | 0.00 | 0.00 | 0.00 | 81 | 947.4 |
| 20260510020412 | 55 | 278 | 2.0 | 6.0 | 0.00 | 0.00 | 0.00 | 81 | 947.4 |
| 20260510020405 | 55 | 279 | 2.0 | 6.0 | 0.00 | 0.00 | 0.00 | 81 | 947.4 |
| 20260510015908 | 55 | 282 | 3.0 | 6.0 | 0.00 | 0.00 | 0.00 | 80 | 947.4 |
| 20260510015904 | 55 | 224 | 3.0 | 6.0 | 0.00 | 0.00 | 0.00 | 80 | 947.4 |
| 20260510015409 | 56 | 250 | 4.0 | 6.0 | 0.00 | 0.00 | 0.00 | 80 | 947.3 |
| 20260510015405 | 56 | 250 | 4.0 | 6.0 | 0.00 | 0.00 | 0.00 | 80 | 947.3 |
| 20260510014909 | 56 | 245 | 2.0 | 7.0 | 0.00 | 0.00 | 0.00 | 80 | 947.3 |
| 20260510014904 | 56 | 238 | 2.0 | 7.0 | 0.00 | 0.00 | 0.00 | 80 | 947.3 |
| 20260510014409 | 55 | 276 | 4.0 | 7.0 | 0.00 | 0.00 | 0.00 | 81 | 947.4 |
| 20260510014405 | 55 | 299 | 5.0 | 7.0 | 0.00 | 0.00 | 0.00 | 81 | 947.4 |
| 20260510013909 | 55 | 258 | 3.0 | 6.0 | 0.00 | 0.00 | 0.00 | 81 | 947.4 |
| 20260510013904 | 55 | 281 | 3.0 | 6.0 | 0.00 | 0.00 | 0.00 | 81 | 947.4 |
| 20260510013412 | 55 | 266 | 3.0 | 5.0 | 0.00 | 0.00 | 0.00 | 81 | 947.5 |
| 20260510013405 | 55 | 266 | 3.0 | 5.0 | 0.00 | 0.00 | 0.00 | 81 | 947.5 |
| 20260510012908 | 55 | 247 | 2.0 | 4.0 | 0.00 | 0.00 | 0.00 | 81 | 947.5 |
| 20260510012904 | 55 | 247 | 2.0 | 4.0 | 0.00 | 0.00 | 0.00 | 81 | 947.5 |
| 20260510012613 | 55 | 262 | 1.0 | 5.0 | 0.00 | 0.00 | 0.00 | 81 | 947.6 |
| 20260510011908 | 55 | 252 | 1.0 | 7.0 | 0.00 | 0.00 | 0.00 | 81 | 947.5 |
| 20260510011904 | 55 | 252 | 1.0 | 7.0 | 0.00 | 0.00 | 0.00 | 81 | 947.5 |
| 20260510011409 | 55 | 324 | 3.0 | 7.0 | 0.00 | 0.00 | 0.00 | 81 | 947.5 |
| 20260510011404 | 56 | 290 | 2.0 | 7.0 | 0.00 | 0.00 | 0.00 | 81 | 947.5 |
| 20260510010907 | 56 | 289 | 3.0 | 6.0 | 0.00 | 0.00 | 0.00 | 81 | 947.6 |
| 20260510010903 | 55 | 289 | 3.0 | 6.0 | 0.00 | 0.00 | 0.00 | 81 | 947.6 |
| 20260510010405 | 56 | 275 | 4.0 | 9.0 | 0.00 | 0.00 | 0.00 | 81 | 947.6 |
| 20260510005903 | 56 | 289 | 4.0 | 9.0 | 0.00 | 0.00 | 0.00 | 81 | 947.6 |
| 20260510005404 | 56 | 251 | 5.0 | 9.0 | 0.00 | 0.00 | 0.00 | 81 | 947.6 |
| 20260510004903 | 56 | 300 | 5.0 | 9.0 | 0.00 | 0.00 | 0.00 | 82 | 947.6 |
| 20260510004612 | 56 | 269 | 4.0 | 7.0 | 0.00 | 0.00 | 0.00 | 82 | 947.7 |
| 20260510004112 | 56 | 283 | 4.0 | 7.0 | 0.00 | 0.00 | 0.00 | 82 | 947.8 |
| 20260510003404 | 56 | 275 | 3.0 | 7.0 | 0.00 | 0.00 | 0.00 | 82 | 947.9 |
| 20260510002903 | 56 | 264 | 3.0 | 6.0 | 0.00 | 0.00 | 0.00 | 82 | 947.9 |
| 20260510002404 | 56 | 283 | 3.0 | 14.0 | 0.00 | 0.00 | 0.00 | 82 | 947.8 |
| 20260510002111 | 56 | 278 | 6.0 | 14.0 | 0.00 | 0.00 | 0.00 | 82 | 947.8 |
| 20260510001403 | 56 | 271 | 3.0 | 10.0 | 0.00 | 0.00 | 0.00 | 82 | 947.7 |
| 20260510000902 | 56 | 206 | 5.0 | 10.0 | 0.00 | 0.00 | 0.00 | 82 | 947.8 |
| 20260510000403 | 56 | 279 | 3.0 | 10.0 | 0.00 | 0.00 | 0.00 | 82 | 947.9 |
| 20260509235902 | 56 | 286 | 6.0 | 10.0 | 0.00 | 0.00 | 0.00 | 83 | 947.9 |
| 20260509235403 | 55 | 293 | 2.0 | 9.0 | 0.00 | 0.00 | 0.00 | 83 | 947.9 |
| 20260509234901 | 55 | 313 | 3.0 | 9.0 | 0.00 | 0.00 | 0.00 | 83 | 948.0 |
| 20260509234403 | 56 | 257 | 3.0 | 9.0 | 0.00 | 0.00 | 0.00 | 83 | 948.0 |
| 20260509234109 | 56 | 334 | 3.0 | 9.0 | 0.00 | 0.00 | 0.00 | 83 | 948.1 |
| 20260509233403 | 56 | 279 | 2.0 | 7.0 | 0.00 | 0.00 | 0.00 | 83 | 948.1 |
| 20260509233110 | 56 | 250 | 3.0 | 7.0 | 0.00 | 0.00 | 0.00 | 82 | 948.1 |
| 20260509232402 | 56 | 298 | 4.0 | 12.0 | 0.00 | 0.00 | 0.00 | 82 | 948.1 |
| 20260509231901 | 56 | 334 | 6.0 | 12.0 | 0.00 | 0.00 | 0.00 | 82 | 948.2 |
| 20260509231402 | 57 | 269 | 4.0 | 10.0 | 0.00 | 0.00 | 0.00 | 81 | 948.2 |
| 20260509231109 | 57 | 303 | 6.0 | 10.0 | 0.00 | 0.00 | 0.00 | 81 | 948.3 |
| 20260509230612 | 57 | 250 | 4.0 | 13.0 | 0.00 | 0.00 | 0.00 | 80 | 948.5 |
| 20260509225901 | 57 | 285 | 8.0 | 13.0 | 0.00 | 0.00 | 0.00 | 80 | 948.4 |
| 20260509225401 | 57 | 276 | 6.0 | 9.0 | 0.00 | 0.00 | 0.00 | 80 | 948.4 |
| 20260509224901 | 57 | 276 | 3.0 | 10.0 | 0.00 | 0.00 | 0.00 | 80 | 948.4 |
| 20260509224402 | 57 | 299 | 3.0 | 10.0 | 0.00 | 0.00 | 0.00 | 80 | 948.5 |
| 20260509224109 | 57 | 295 | 5.0 | 7.0 | 0.00 | 0.00 | 0.00 | 80 | 948.5 |
| 20260509223359 | 0 | 266 | 4.0 | 1.0 | 0.00 | 0.00 | 0.00 | 948.5 | |
| 20260509223136 | 0 | 0.0 | 0.0 | 0.00 | 0.00 | 0.00 | |||
| 20260509222635 | 57 | 244 | 4.0 | 6.0 | 0.00 | 0.00 | 0.00 | 80 | 948.5 |
| 20260509222123 | 57 | 244 | 4.0 | 6.0 | 0.00 | 0.00 | 0.00 | 80 | 948.5 |
| 20260509221620 | 57 | 306 | 4.0 | 7.0 | 0.00 | 0.00 | 0.00 | 80 | 948.4 |
| 20260509221124 | 57 | 269 | 4.0 | 10.0 | 0.00 | 0.00 | 0.00 | 80 | 948.4 |
| 20260509220828 | 57 | 309 | 6.0 | 10.0 | 0.00 | 0.00 | 0.00 | 81 | 948.4 |
| 20260509220122 | 57 | 283 | 5.0 | 5.0 | 0.00 | 0.00 | 0.00 | 81 | 948.4 |
| 20260509215902 | 0 | 0.0 | 0.0 | 0.00 | 0.00 | 0.00 | 948.4 | ||
| 20260509215831 | 57 | 324 | 5.0 | 9.0 | 0.00 | 0.00 | 0.00 | 82 | 948.4 |
| 20260509215402 | 57 | 324 | 5.0 | 9.0 | 0.00 | 0.00 | 0.00 | 82 | 948.4 |
| 20260509215332 | 57 | 324 | 5.0 | 9.0 | 0.00 | 0.00 | 0.00 | 82 | 948.4 |
| 20260509214831 | 57 | 320 | 3.0 | 4.0 | 0.00 | 0.00 | 0.00 | 82 | 948.4 |
| 20260509214335 | 57 | 292 | 4.0 | 4.0 | 0.00 | 0.00 | 0.00 | 82 | 948.3 |
| 20260509214330 | 57 | 276 | 2.0 | 4.0 | 0.00 | 0.00 | 0.00 | 82 | 948.4 |
| 20260509213804 | 57 | 216 | 2.0 | 5.0 | 0.00 | 0.00 | 0.00 | 81 | 948.3 |
| 20260509213333 | 57 | 257 | 4.0 | 5.0 | 0.00 | 0.00 | 0.00 | 81 | 948.3 |
| 20260509213305 | 57 | 244 | 4.0 | 5.0 | 0.00 | 0.00 | 0.00 | 81 | 948.3 |
| 20260509212833 | 57 | 235 | 4.0 | 5.0 | 0.00 | 0.00 | 0.00 | 81 | 948.2 |
| 20260509212805 | 57 | 237 | 3.0 | 7.0 | 0.00 | 0.00 | 0.00 | 81 | 948.2 |
| 20260509212513 | 57 | 233 | 2.0 | 7.0 | 0.00 | 0.00 | 0.00 | 81 | 948.0 |
| 20260509211832 | 57 | 274 | 6.0 | 7.0 | 0.00 | 0.00 | 0.00 | 81 | 948.1 |
| 20260509211805 | 57 | 289 | 4.0 | 6.0 | 0.00 | 0.00 | 0.00 | 81 | 948.1 |
| 20260509211513 | 57 | 258 | 3.0 | 6.0 | 0.00 | 0.00 | 0.00 | 81 | 948.2 |
| 20260509210832 | 58 | 237 | 2.0 | 4.0 | 0.00 | 0.00 | 0.00 | 81 | 948.0 |
| 20260509210805 | 58 | 238 | 2.0 | 4.0 | 0.00 | 0.00 | 0.00 | 81 | 948.1 |
| 20260509210332 | 58 | 245 | 2.0 | 4.0 | 0.00 | 0.00 | 0.00 | 81 | 948.1 |
| 20260509210305 | 58 | 228 | 1.0 | 4.0 | 0.00 | 0.00 | 0.00 | 81 | 948.1 |
| 20260509205833 | 58 | 224 | 3.0 | 6.0 | 0.00 | 0.00 | 0.00 | 81 | 948.1 |
| 20260509205804 | 58 | 235 | 4.0 | 6.0 | 0.00 | 0.00 | 0.00 | 81 | 948.0 |
| 20260509205332 | 58 | 275 | 3.0 | 6.0 | 0.00 | 0.00 | 0.00 | 81 | 948.0 |
| 20260509205307 | 58 | 234 | 4.0 | 6.0 | 0.00 | 0.00 | 0.00 | 81 | 948.0 |
| 20260509204831 | 58 | 240 | 2.0 | 4.0 | 0.00 | 0.00 | 0.00 | 81 | 948.2 |
| 20260509204804 | 58 | 258 | 2.0 | 4.0 | 0.00 | 0.00 | 0.00 | 81 | 948.2 |
| 20260509204513 | 58 | 216 | 2.0 | 4.0 | 0.00 | 0.00 | 0.00 | 81 | 948.1 |
| 20260509203831 | 58 | 230 | 2.0 | 5.0 | 0.00 | 0.00 | 0.00 | 81 | 948.1 |
| 20260509203805 | 58 | 261 | 2.0 | 5.0 | 0.00 | 0.00 | 0.00 | 81 | 948.1 |
| 20260509203306 | 58 | 223 | 2.0 | 6.0 | 0.00 | 0.00 | 0.00 | 81 | 948.1 |
| 20260509203011 | 58 | 190 | 2.0 | 9.0 | 0.00 | 0.00 | 0.00 | 81 | 948.1 |
| 20260509202306 | 58 | 255 | 3.0 | 9.0 | 0.00 | 0.00 | 0.00 | 81 | 948.1 |
| 20260509202259 | 58 | 248 | 3.0 | 7.0 | 0.00 | 0.00 | 0.00 | 81 | 948.1 |
| 20260509201801 | 58 | 219 | 3.0 | 9.0 | 0.00 | 0.00 | 0.00 | 81 | 948.1 |
| 20260509201741 | 58 | 234 | 2.0 | 10.0 | 0.00 | 0.00 | 0.00 | 81 | 948.1 |
| 20260509201444 | 58 | 251 | 4.0 | 10.0 | 0.00 | 0.00 | 0.00 | 81 | 948.1 |
| 20260509200803 | 58 | 271 | 4.0 | 10.0 | 0.00 | 0.01 | 0.00 | 83 | 948.0 |
| 20260509200736 | 58 | 231 | 4.0 | 7.0 | 0.00 | 0.01 | 0.00 | 83 | 948.0 |
| 20260509200443 | 58 | 221 | 2.0 | 4.0 | 0.00 | 0.01 | 0.00 | 83 | 948.0 |
| 20260509195942 | 58 | 244 | 1.0 | 4.0 | 0.00 | 0.01 | 0.00 | 83 | 947.9 |
| 20260509195301 | 59 | 268 | 2.0 | 6.0 | 0.00 | 0.02 | 0.00 | 82 | 947.9 |
| 20260509195234 | 59 | 286 | 2.0 | 6.0 | 0.00 | 0.02 | 0.00 | 81 | 947.9 |
| 20260509194802 | 59 | 295 | 2.0 | 6.0 | 0.00 | 0.02 | 0.00 | 81 | 947.8 |
| 20260509194734 | 59 | 292 | 2.0 | 6.0 | 0.00 | 0.02 | 0.00 | 81 | 947.8 |
| 20260509194302 | 59 | 296 | 2.0 | 13.0 | 0.00 | 0.02 | 0.00 | 80 | 947.9 |
| 20260509194234 | 59 | 299 | 2.0 | 13.0 | 0.00 | 0.02 | 0.00 | 80 | 947.9 |
| 20260509193802 | 60 | 23 | 7.0 | 13.0 | 0.00 | 0.03 | 0.00 | 79 | 948.0 |
| 20260509193733 | 60 | 331 | 7.0 | 13.0 | 0.00 | 0.03 | 0.00 | 79 | 948.0 |
| 20260509193302 | 60 | 306 | 7.0 | 13.0 | 0.00 | 0.06 | 0.00 | 79 | 947.9 |
| 20260509193234 | 60 | 307 | 7.0 | 13.0 | 0.00 | 0.06 | 0.00 | 79 | 947.9 |
| 20260509192801 | 60 | 39 | 7.0 | 15.0 | 0.00 | 0.07 | 0.00 | 79 | 947.9 |
| 20260509192733 | 60 | 25 | 6.0 | 15.0 | 0.00 | 0.07 | 0.00 | 79 | 947.9 |
| 20260509192442 | 60 | 343 | 6.0 | 15.0 | 0.00 | 0.09 | 0.00 | 78 | 947.7 |
| 20260509191801 | 60 | 317 | 9.0 | 14.0 | 0.00 | 0.11 | 0.00 | 77 | 947.7 |
| 20260509191733 | 60 | 331 | 9.0 | 14.0 | 0.00 | 0.11 | 0.00 | 77 | 947.7 |
| 20260509191259 | 61 | 323 | 8.0 | 14.0 | 0.00 | 0.11 | 0.00 | 76 | 947.8 |
| 20260509191233 | 61 | 316 | 8.0 | 14.0 | 0.00 | 0.11 | 0.00 | 76 | 947.8 |
| 20260509190800 | 61 | 44 | 6.0 | 15.0 | 0.00 | 0.11 | 0.00 | 76 | 947.7 |
| 20260509190733 | 61 | 13 | 6.0 | 15.0 | 0.00 | 0.11 | 0.00 | 76 | 947.7 |
| 20260509190257 | 61 | 30 | 8.0 | 15.0 | 0.00 | 0.11 | 0.00 | 74 | 947.7 |
| 20260509190233 | 61 | 341 | 7.0 | 15.0 | 0.00 | 0.11 | 0.00 | 74 | 947.7 |
| 20260509185758 | 61 | 353 | 6.0 | 14.0 | 0.00 | 0.12 | 0.00 | 73 | 947.5 |
| 20260509185732 | 61 | 345 | 6.0 | 14.0 | 0.00 | 0.12 | 0.00 | 73 | 947.5 |
| 20260509185255 | 61 | 330 | 6.0 | 14.0 | 0.00 | 0.13 | 0.00 | 72 | 947.4 |
| 20260509185232 | 61 | 343 | 5.0 | 14.0 | 0.00 | 0.13 | 0.00 | 72 | 947.4 |
| 20260509184749 | 61 | 302 | 6.0 | 14.0 | 0.00 | 0.13 | 0.00 | 71 | 947.4 |
| 20260509184732 | 61 | 327 | 6.0 | 14.0 | 0.00 | 0.13 | 0.00 | 71 | 947.4 |
| 20260509184250 | 61 | 337 | 6.0 | 11.0 | 0.00 | 0.14 | 0.00 | 71 | 947.4 |
| 20260509184232 | 61 | 317 | 6.0 | 11.0 | 0.00 | 0.14 | 0.00 | 71 | 947.4 |
| 20260509183747 | 62 | 334 | 6.0 | 10.0 | 0.00 | 0.14 | 0.00 | 72 | 947.4 |
| 20260509183732 | 62 | 310 | 6.0 | 10.0 | 0.00 | 0.14 | 0.00 | 72 | 947.4 |
| 20260509183245 | 62 | 341 | 3.0 | 10.0 | 0.00 | 0.15 | 0.00 | 71 | 947.2 |
| 20260509183232 | 62 | 334 | 3.0 | 10.0 | 0.00 | 0.15 | 0.00 | 71 | 947.2 |
| 20260509182742 | 62 | 44 | 3.0 | 7.0 | 0.00 | 0.16 | 0.00 | 70 | 947.2 |
| 20260509182732 | 62 | 321 | 3.0 | 7.0 | 0.00 | 0.16 | 0.00 | 70 | 947.2 |
| 20260509182243 | 62 | 313 | 4.0 | 11.0 | 0.00 | 0.16 | 0.00 | 69 | 947.1 |
| 20260509182232 | 62 | 321 | 4.0 | 11.0 | 0.00 | 0.16 | 0.00 | 69 | 947.1 |
| 20260509181736 | 62 | 296 | 4.0 | 11.0 | 0.00 | 0.16 | 0.00 | 69 | 947.2 |
| 20260509181732 | 62 | 288 | 4.0 | 11.0 | 0.00 | 0.16 | 0.00 | 69 | 947.2 |
| 20260509181236 | 62 | 307 | 6.0 | 10.0 | 0.00 | 0.16 | 0.00 | 68 | 947.0 |
| 20260509181231 | 62 | 299 | 6.0 | 10.0 | 0.00 | 0.16 | 0.00 | 68 | 947.0 |
| 20260509180940 | 62 | 295 | 4.0 | 12.0 | 0.00 | 0.16 | 0.00 | 68 | 946.9 |
| 20260509180231 | 62 | 307 | 6.0 | 12.0 | 0.00 | 0.16 | 0.00 | 67 | 946.8 |
| 20260509175735 | 62 | 288 | 5.0 | 10.0 | 0.00 | 0.16 | 0.00 | 69 | 946.8 |
| 20260509175731 | 62 | 268 | 5.0 | 10.0 | 0.00 | 0.16 | 0.00 | 69 | 946.8 |
| 20260509175236 | 62 | 288 | 4.0 | 10.0 | 0.00 | 0.16 | 0.00 | 68 | 946.8 |
| 20260509175231 | 62 | 289 | 4.0 | 10.0 | 0.00 | 0.16 | 0.00 | 68 | 946.8 |
| 20260509174731 | 62 | 292 | 5.0 | 9.0 | 0.00 | 0.16 | 0.00 | 68 | 946.7 |
| 20260509174439 | 62 | 302 | 4.0 | 9.0 | 0.00 | 0.16 | 0.00 | 68 | 946.7 |
| 20260509173735 | 62 | 306 | 4.0 | 12.0 | 0.00 | 0.16 | 0.00 | 69 | 946.8 |
| 20260509173731 | 62 | 285 | 4.0 | 12.0 | 0.00 | 0.16 | 0.00 | 69 | 946.8 |
| 20260509173231 | 63 | 306 | 3.0 | 12.0 | 0.00 | 0.16 | 0.00 | 68 | 946.7 |
| 20260509172734 | 63 | 316 | 5.0 | 11.0 | 0.00 | 0.16 | 0.00 | 68 | 946.7 |
| 20260509172730 | 63 | 290 | 5.0 | 11.0 | 0.00 | 0.16 | 0.00 | 68 | 946.7 |
| 20260509172231 | 63 | 324 | 6.0 | 10.0 | 0.00 | 0.16 | 0.00 | 69 | 946.7 |
| 20260509171735 | 63 | 303 | 7.0 | 10.0 | 0.00 | 0.16 | 0.00 | 68 | 946.7 |
| 20260509171730 | 63 | 295 | 7.0 | 10.0 | 0.00 | 0.16 | 0.00 | 68 | 946.7 |
| 20260509171235 | 63 | 217 | 5.0 | 11.0 | 0.00 | 0.16 | 0.00 | 70 | 946.6 |
| 20260509171230 | 63 | 213 | 5.0 | 11.0 | 0.00 | 0.16 | 0.00 | 70 | 946.6 |
| 20260509170730 | 64 | 302 | 7.0 | 14.0 | 0.00 | 0.16 | 0.00 | 66 | 946.5 |
| 20260509170229 | 64 | 310 | 9.0 | 14.0 | 0.00 | 0.16 | 0.00 | 66 | 946.4 |
| 20260509165938 | 65 | 289 | 7.0 | 14.0 | 0.00 | 0.16 | 0.00 | 67 | 946.4 |
| 20260509165230 | 65 | 306 | 6.0 | 12.0 | 0.00 | 0.16 | 0.00 | 68 | 946.4 |
| 20260509164730 | 65 | 292 | 7.0 | 14.0 | 0.00 | 0.16 | 0.00 | 68 | 946.5 |
| 20260509164229 | 65 | 319 | 6.0 | 14.0 | 0.00 | 0.16 | 0.00 | 66 | 946.5 |
| 20260509163730 | 64 | 290 | 8.0 | 14.0 | 0.00 | 0.16 | 0.00 | 68 | 946.5 |
| 20260509163230 | 64 | 289 | 5.0 | 11.0 | 0.00 | 0.16 | 0.00 | 70 | 946.5 |
| 20260509162730 | 64 | 309 | 4.0 | 11.0 | 0.00 | 0.16 | 0.00 | 69 | 946.4 |
| 20260509162229 | 64 | 306 | 5.0 | 11.0 | 0.00 | 0.16 | 0.00 | 68 | 946.5 |
| 20260509161729 | 64 | 262 | 5.0 | 15.0 | 0.00 | 0.16 | 0.00 | 69 | 946.4 |
| 20260509161229 | 64 | 300 | 5.0 | 15.0 | 0.00 | 0.16 | 0.00 | 68 | 946.4 |
| 20260509160729 | 64 | 285 | 7.0 | 15.0 | 0.00 | 0.16 | 0.00 | 67 | 946.4 |
| 20260509160228 | 64 | 272 | 7.0 | 12.0 | 0.00 | 0.16 | 0.00 | 67 | 946.6 |
| 20260509155728 | 64 | 247 | 5.0 | 12.0 | 0.00 | 0.16 | 0.00 | 67 | 946.5 |
| 20260509155438 | 64 | 290 | 5.0 | 10.0 | 0.00 | 0.16 | 0.00 | 67 | 946.7 |
| 20260509154729 | 63 | 237 | 6.0 | 12.0 | 0.00 | 0.16 | 0.00 | 68 | 946.6 |
| 20260509154229 | 63 | 300 | 7.0 | 12.0 | 0.00 | 0.16 | 0.00 | 66 | 946.6 |
| 20260509153728 | 64 | 309 | 7.0 | 13.0 | 0.00 | 0.16 | 0.00 | 66 | 946.4 |